Time;durP1;ratioP1;P1;durP2;ratioP2;P2;SDS_P1;SDS_P2;PMS_P1;PMS_P2;Temp;Humidity;BMP_temperature;BMP_pressure;BME280_temperature;BME280_humidity;BME280_pressure;Samples;Min_cycle;Max_cycle;Signal;HPM_P1;HPM_P2
2022/06/22 00:02:08;;;;;;;1999.90;999.90;;;;;;;19.03;100.00;93498.06;5054923;28;20185;-62
2022/06/22 00:04:47;;;;;;;1999.90;999.90;;;;;;;19.08;100.00;93481.44;5055009;28;20193;-62
2022/06/22 00:07:20;;;;;;;1999.90;999.90;;;;;;;19.04;100.00;93488.47;5055106;28;20196;-61
2022/06/22 00:09:46;;;;;;;1999.90;999.90;;;;;;;19.09;100.00;93484.97;5055446;28;20218;-63
2022/06/22 00:12:31;;;;;;;1999.90;999.90;;;;;;;19.08;100.00;93491.75;5055046;28;20182;-59
2022/06/22 00:14:58;;;;;;;1999.90;999.90;;;;;;;19.10;100.00;93487.25;5055264;28;20189;-64
2022/06/22 00:17:36;;;;;;;1999.90;999.90;;;;;;;19.19;100.00;93494.50;5054859;28;20197;-64
2022/06/22 00:20:11;;;;;;;1999.90;999.90;;;;;;;19.22;100.00;93499.03;5054689;28;20228;-63
2022/06/22 00:22:49;;;;;;;1999.90;999.90;;;;;;;19.19;100.00;93477.91;5054760;28;20181;-64
2022/06/22 00:25:26;;;;;;;1999.90;999.90;;;;;;;19.13;100.00;93475.13;5055044;28;20257;-63
2022/06/22 00:27:52;;;;;;;1999.90;999.90;;;;;;;19.09;100.00;93469.09;5054873;28;20190;-60
2022/06/22 00:30:31;;;;;;;1999.90;999.90;;;;;;;19.11;100.00;93469.38;5054976;28;20225;-57
2022/06/22 00:33:12;;;;;;;1999.90;999.90;;;;;;;19.01;100.00;93434.16;5055123;28;20297;-65
2022/06/22 00:35:50;;;;;;;1999.90;999.90;;;;;;;18.98;100.00;93390.91;5055150;28;20216;-63
2022/06/22 00:38:31;;;;;;;1999.90;999.90;;;;;;;18.93;100.00;93350.91;5055167;28;20209;-64
2022/06/22 00:41:11;;;;;;;1999.90;999.90;;;;;;;18.94;100.00;93321.25;5054553;28;20213;-63
2022/06/22 00:43:37;;;;;;;1999.90;999.90;;;;;;;18.84;100.00;93309.69;5054346;28;20272;-65
2022/06/22 00:46:13;;;;;;;1999.90;999.90;;;;;;;18.77;100.00;93287.34;5054661;28;20208;-62
2022/06/22 00:48:38;;;;;;;1999.90;999.90;;;;;;;18.76;100.00;93263.72;5054983;28;20177;-56
2022/06/22 00:51:07;;;;;;;1999.90;999.90;;;;;;;18.71;100.00;93234.81;5054319;28;20209;-64
2022/06/22 00:53:40;;;;;;;1999.90;999.90;;;;;;;18.63;100.00;93210.94;5054241;28;20185;-64
2022/06/22 00:56:13;;;;;;;1999.90;999.90;;;;;;;18.64;100.00;93179.25;5054724;28;20197;-64
2022/06/22 00:59:00;;;;;;;1999.90;999.90;;;;;;;18.66;100.00;93166.47;5054757;28;20239;-63
2022/06/22 01:01:57;;;;;;;1999.90;999.90;;;;;;;18.71;100.00;93157.38;5054551;28;20237;-64
2022/06/22 01:04:40;;;;;;;1999.90;999.90;;;;;;;18.70;100.00;93166.19;5054738;28;20219;-67
2022/06/22 01:07:16;;;;;;;1999.90;999.90;;;;;;;18.79;100.00;93129.91;5054826;28;20206;-60
2022/06/22 01:10:05;;;;;;;1999.90;999.90;;;;;;;18.78;100.00;93122.88;5054398;28;20209;-70
2022/06/22 01:12:33;;;;;;;1999.90;999.90;;;;;;;18.89;100.00;93111.75;5054415;28;20248;-69
2022/06/22 01:15:04;;;;;;;1999.90;999.90;;;;;;;18.98;100.00;93114.25;5037468;28;20189;-69
2022/06/22 01:17:54;;;;;;;1999.90;999.90;;;;;;;18.97;100.00;93107.19;5037480;28;20198;-68
2022/06/22 01:20:43;;;;;;;1999.90;999.90;;;;;;;18.94;100.00;93108.22;5054469;28;20185;-69
2022/06/22 01:23:20;;;;;;;1999.90;999.90;;;;;;;18.93;100.00;93096.41;5037389;28;20190;-56
2022/06/22 01:25:51;;;;;;;1999.90;999.90;;;;;;;18.89;100.00;93084.09;5037407;28;20193;-62
2022/06/22 01:28:17;;;;;;;1999.90;999.90;;;;;;;18.88;100.00;93088.13;5054081;28;20185;-61
2022/06/22 01:30:49;;;;;;;1999.90;999.90;;;;;;;18.88;100.00;93082.59;5053940;28;20222;-61
2022/06/22 01:33:24;;;;;;;1999.90;999.90;;;;;;;18.88;100.00;93077.84;5052999;28;20194;-61
2022/06/22 01:35:54;;;;;;;1999.90;999.90;;;;;;;18.88;100.00;93071.53;5053588;28;20174;-61
2022/06/22 01:38:27;;;;;;;1999.90;999.90;;;;;;;18.89;100.00;93061.97;5054304;28;20214;-61
2022/06/22 01:41:11;;;;;;;1999.90;999.90;;;;;;;18.86;100.00;93040.88;5054199;28;20280;-63
2022/06/22 01:43:43;;;;;;;1999.90;999.90;;;;;;;18.71;100.00;93030.16;5053689;28;20186;-59
2022/06/22 01:46:19;;;;;;;1999.90;999.90;;;;;;;18.71;100.00;92996.22;5053699;28;20328;-62
2022/06/22 01:48:55;;;;;;;1999.90;999.90;;;;;;;18.73;100.00;92971.56;5037570;28;20193;-62
2022/06/22 01:51:27;;;;;;;1999.90;999.90;;;;;;;18.79;100.00;92952.91;5053548;28;20209;-63
2022/06/22 01:54:03;;;;;;;1999.90;999.90;;;;;;;18.77;100.00;92949.91;5053834;28;20182;-62
2022/06/22 01:56:39;;;;;;;1999.90;999.90;;;;;;;18.75;100.00;92935.84;5054072;28;20239;-63
2022/06/22 01:59:10;;;;;;;1999.90;999.90;;;;;;;18.82;100.00;92936.03;5053329;28;20185;-62
2022/06/22 02:01:39;;;;;;;1999.90;999.90;;;;;;;18.82;100.00;92929.75;5036993;28;20193;-61
2022/06/22 02:04:17;;;;;;;1999.90;999.90;;;;;;;18.81;100.00;92922.72;5036972;28;20225;-62
2022/06/22 02:10:08;;;;;;;1999.90;999.90;;;;;;;18.82;100.00;92894.56;5054586;28;20189;-61
2022/06/22 02:12:40;;;;;;;1999.90;999.90;;;;;;;18.80;100.00;92882.53;5036565;28;20201;-62
2022/06/22 02:15:36;;;;;;;1999.90;999.90;;;;;;;18.81;100.00;92873.72;5053428;28;20193;-62
2022/06/22 02:18:02;;;;;;;1999.90;999.90;;;;;;;18.78;100.00;92873.97;5037135;28;20198;-56
2022/06/22 02:20:30;;;;;;;1999.90;999.90;;;;;;;18.74;100.00;92873.50;5053107;28;20194;-69
2022/06/22 02:23:01;;;;;;;1999.90;999.90;;;;;;;18.79;100.00;92865.16;5036461;28;20327;-69
2022/06/22 02:25:30;;;;;;;1999.90;999.90;;;;;;;18.74;100.00;92854.16;5053191;28;20197;-70
2022/06/22 02:27:56;;;;;;;1999.90;999.90;;;;;;;18.71;100.00;92857.94;5053612;28;20217;-70
2022/06/22 02:30:21;;;;;;;1999.90;999.90;;;;;;;18.82;100.00;92857.84;5053142;28;20236;-69
2022/06/22 02:32:47;;;;;;;1999.90;999.90;;;;;;;18.87;100.00;92859.81;5053339;28;20239;-69
2022/06/22 02:35:14;;;;;;;1999.90;999.90;;;;;;;18.87;100.00;92879.91;5052987;28;20194;-69
2022/06/22 02:37:53;;;;;;;1999.90;999.90;;;;;;;18.86;100.00;92877.66;5052492;28;20196;-65
2022/06/22 02:40:28;;;;;;;1999.90;999.90;;;;;;;18.82;100.00;92875.19;5052943;28;20201;-64
2022/06/22 02:45:41;;;;;;;1999.90;999.90;;;;;;;18.86;100.00;92863.84;5054083;28;20226;-64
2022/06/22 02:48:12;;;;;;;1999.90;999.90;;;;;;;18.86;100.00;92864.59;5052491;28;20192;-64
2022/06/22 02:50:56;;;;;;;1999.90;999.90;;;;;;;18.82;100.00;92863.38;5036323;28;20308;-64
2022/06/22 02:53:37;;;;;;;1999.90;999.90;;;;;;;18.72;100.00;92865.00;5035611;28;20243;-64
2022/06/22 02:56:05;;;;;;;1999.90;999.90;;;;;;;18.72;100.00;92849.13;5052416;28;20205;-61
2022/06/22 02:58:34;;;;;;;1999.90;999.90;;;;;;;18.70;100.00;92839.88;5052345;28;20251;-61
2022/06/22 03:01:04;;;;;;;1999.90;999.90;;;;;;;18.67;100.00;92816.00;5052114;28;20193;-62
2022/06/22 03:03:33;;;;;;;1999.90;999.90;;;;;;;18.66;100.00;92762.00;5036020;28;20259;-62
2022/06/22 03:05:58;;;;;;;1999.90;999.90;;;;;;;18.68;100.00;92740.09;5052545;28;20202;-63
2022/06/22 03:08:25;;;;;;;1999.90;999.90;;;;;;;18.61;100.00;92722.06;5052464;28;20200;-62
2022/06/22 03:11:01;;;;;;;1999.90;999.90;;;;;;;18.65;100.00;92697.63;5052486;28;20299;-62
2022/06/22 03:13:56;;;;;;;1999.90;999.90;;;;;;;18.63;100.00;92691.13;5052544;28;20194;-61
2022/06/22 03:16:29;;;;;;;1999.90;999.90;;;;;;;18.62;100.00;92700.72;5050727;28;20227;-62
2022/06/22 03:18:56;;;;;;;1999.90;999.90;;;;;;;18.73;100.00;92711.63;5052429;28;20197;-61
2022/06/22 03:21:22;;;;;;;1999.90;999.90;;;;;;;18.79;100.00;92717.81;5052582;28;20182;-61
2022/06/22 03:24:06;;;;;;;1999.90;999.90;;;;;;;18.75;100.00;92745.78;5052054;28;20267;-62
2022/06/22 03:26:37;;;;;;;1999.90;999.90;;;;;;;18.78;100.00;92744.00;5052246;28;20190;-60
2022/06/22 03:29:31;;;;;;;1999.90;999.90;;;;;;;18.84;100.00;92773.06;5052738;28;20193;-61
2022/06/22 03:32:02;;;;;;;1999.90;999.90;;;;;;;18.89;100.00;92802.72;5052673;28;20257;-63
2022/06/22 03:34:49;;;;;;;1999.90;999.90;;;;;;;19.06;100.00;92828.16;5052320;28;20225;-60
2022/06/22 03:37:36;;;;;;;1999.90;999.90;;;;;;;19.22;100.00;92865.22;5035800;28;20297;-61
2022/06/22 03:40:25;;;;;;;1999.90;999.90;;;;;;;19.27;100.00;92897.66;5051538;28;20265;-63
2022/06/22 03:42:55;;;;;;;1999.90;999.90;;;;;;;19.28;100.00;92940.69;5018499;28;20201;-64
2022/06/22 03:45:27;;;;;;;1999.90;999.90;;;;;;;19.26;100.00;92971.63;5051583;28;20244;-64
2022/06/22 03:48:11;;;;;;;1999.90;999.90;;;;;;;19.29;100.00;93001.06;5051837;28;20197;-62
2022/06/22 03:50:47;;;;;;;1999.90;999.90;;;;;;;19.32;100.00;93010.34;5052122;28;20224;-61
2022/06/22 03:53:30;;;;;;;1999.90;999.90;;;;;;;19.38;100.00;93024.88;5052177;28;20178;-65
2022/06/22 03:56:01;;;;;;;1999.90;999.90;;;;;;;19.40;100.00;93028.63;5036722;28;20189;-65
2022/06/22 03:58:27;;;;;;;1999.90;999.90;;;;;;;19.40;100.00;93036.19;5056127;28;20190;-66
2022/06/22 04:00:53;;;;;;;1999.90;999.90;;;;;;;19.41;100.00;93029.38;5055139;28;20201;-65
2022/06/22 04:03:19;;;;;;;1999.90;999.90;;;;;;;19.48;100.00;93033.59;5055362;28;20209;-66
2022/06/22 04:05:49;;;;;;;1999.90;999.90;;;;;;;19.36;100.00;93044.03;5055327;28;20185;-65
2022/06/22 04:08:32;;;;;;;1999.90;999.90;;;;;;;19.37;100.00;93034.44;5055483;28;20185;-64
2022/06/22 04:11:09;;;;;;;1999.90;999.90;;;;;;;19.35;100.00;93045.28;5055286;28;20224;-67
2022/06/22 04:13:43;;;;;;;1999.90;999.90;;;;;;;19.34;100.00;93063.91;5055356;28;20189;-62
2022/06/22 04:16:14;;;;;;;1999.90;999.90;;;;;;;19.46;100.00;93070.13;5055006;28;20228;-62
2022/06/22 04:18:55;;;;;;;1999.90;999.90;;;;;;;19.53;100.00;93086.16;5056002;28;20186;-63
2022/06/22 04:21:30;;;;;;;1999.90;999.90;;;;;;;19.63;100.00;93109.47;5038767;28;20197;-62
2022/06/22 04:24:03;;;;;;;1999.90;999.90;;;;;;;19.71;100.00;93117.97;5038013;28;20236;-62
2022/06/22 04:26:38;;;;;;;1999.90;999.90;;;;;;;19.79;100.00;93129.97;5054750;28;20220;-63
2022/06/22 04:29:47;;;;;;;1999.90;999.90;;;;;;;19.88;100.00;93160.16;5055973;28;20225;-63
2022/06/22 04:32:21;;;;;;;1999.90;999.90;;;;;;;20.03;100.00;93200.03;5037899;28;20201;-60
2022/06/22 04:34:52;;;;;;;1999.90;999.90;;;;;;;20.18;100.00;93244.78;5054401;28;20272;-61
2022/06/22 04:37:29;;;;;;;1999.90;999.90;;;;;;;20.32;100.00;93279.69;5038011;28;20190;-61
2022/06/22 04:40:12;;;;;;;1999.90;999.90;;;;;;;20.47;100.00;93299.47;5054521;28;20209;-61
2022/06/22 04:42:38;;;;;;;1999.90;999.90;;;;;;;20.66;100.00;93316.97;5055117;28;20246;-61
2022/06/22 04:45:04;;;;;;;1999.90;999.90;;;;;;;20.77;100.00;93350.16;5054722;28;20228;-57
2022/06/22 04:47:34;;;;;;;1999.90;999.90;;;;;;;20.92;100.00;93383.06;5054410;28;20186;-62
2022/06/22 04:50:12;;;;;;;1999.90;999.90;;;;;;;21.14;100.00;93419.75;5054375;28;20210;-66
2022/06/22 04:52:42;;;;;;;1999.90;999.90;;;;;;;21.32;100.00;93480.16;5037912;28;20198;-67
2022/06/22 04:55:14;;;;;;;1999.90;999.90;;;;;;;21.54;100.00;93526.44;5054187;28;20268;-66
2022/06/22 04:57:42;;;;;;;1999.90;999.90;;;;;;;21.71;100.00;93588.16;5054201;28;20280;-66
2022/06/22 05:00:16;;;;;;;1999.90;999.90;;;;;;;21.91;100.00;93635.00;5054179;28;20252;-67
2022/06/22 05:02:45;;;;;;;1999.90;999.90;;;;;;;22.28;100.00;93701.91;5054139;28;20185;-67
2022/06/22 05:05:18;;;;;;;1999.90;999.90;;;;;;;22.48;100.00;93744.00;5054217;28;20190;-57
2022/06/22 05:08:11;;;;;;;1999.90;999.90;;;;;;;22.54;100.00;93804.44;5037814;28;20285;-72
2022/06/22 05:10:46;;;;;;;1999.90;999.90;;;;;;;22.59;100.00;93848.91;5037455;28;20213;-68
2022/06/22 05:13:15;;;;;;;1999.90;999.90;;;;;;;22.52;100.00;93880.81;5054577;28;20181;-68
2022/06/22 05:15:44;;;;;;;1999.90;999.90;;;;;;;22.50;100.00;93884.66;5053969;28;20242;-67
2022/06/22 05:18:25;;;;;;;1999.90;999.90;;;;;;;22.48;100.00;93874.78;5053984;28;20182;-69
2022/06/22 05:21:13;;;;;;;1999.90;999.90;;;;;;;22.50;100.00;93865.19;5054100;28;20193;-68
2022/06/22 05:23:41;;;;;;;1999.90;999.90;;;;;;;22.56;100.00;93874.22;5000496;28;20225;-66
2022/06/22 05:26:10;;;;;;;1999.90;999.90;;;;;;;22.72;100.00;93887.28;5053524;28;20189;-61
2022/06/22 05:28:46;;;;;;;1999.90;999.90;;;;;;;22.75;100.00;93897.34;5036875;28;20220;-61
2022/06/22 05:31:22;;;;;;;1999.90;999.90;;;;;;;22.74;100.00;93909.78;5053284;28;20201;-74
2022/06/22 05:33:53;;;;;;;1999.90;999.90;;;;;;;22.73;100.00;93897.91;5053742;28;20200;-76
2022/06/22 05:36:22;;;;;;;1999.90;999.90;;;;;;;22.71;100.00;93905.22;5053943;28;20205;-73
2022/06/22 05:38:51;;;;;;;1999.90;999.90;;;;;;;22.74;100.00;93901.41;5053672;28;20240;-74
2022/06/22 05:41:21;;;;;;;1999.90;999.90;;;;;;;22.83;100.00;93904.63;5053471;28;20209;-65
2022/06/22 05:43:48;;;;;;;1999.90;999.90;;;;;;;22.94;100.00;93921.25;5053549;28;20205;-59
2022/06/22 05:46:15;;;;;;;1999.90;999.90;;;;;;;23.09;100.00;93948.75;5053970;28;20252;-59
2022/06/22 05:48:43;;;;;;;1999.90;999.90;;;;;;;23.31;100.00;93966.03;5053348;28;20194;-60
2022/06/22 05:51:36;;;;;;;1999.90;999.90;;;;;;;23.93;100.00;94017.19;5053491;28;20304;-59
2022/06/22 05:54:23;;;;;;;1999.90;999.90;;;;;;;24.68;100.00;94114.53;5036860;28;20193;-59
2022/06/22 05:57:00;;;;;;;1999.90;999.90;;;;;;;25.53;100.00;94205.94;5053479;28;20204;-59
2022/06/22 05:59:29;;;;;;;1999.90;999.90;;;;;;;26.26;100.00;94298.81;5053778;28;20188;-74
2022/06/22 06:02:10;;;;;;;1999.90;999.90;;;;;;;26.65;100.00;94374.63;5036671;28;20194;-58
2022/06/22 06:04:42;;;;;;;1999.90;999.90;;;;;;;27.73;100.00;94451.13;5036614;28;20283;-58
2022/06/22 06:07:19;;;;;;;1999.90;999.90;;;;;;;28.74;100.00;94547.00;5053594;28;20240;-59
2022/06/22 06:09:46;;;;;;;1999.90;999.90;;;;;;;29.42;100.00;94661.19;5053451;28;20195;-58
2022/06/22 06:12:31;;;;;;;1999.90;999.90;;;;;;;28.91;100.00;94716.16;5053294;28;20205;-58
2022/06/22 06:14:57;;;;;;;1999.90;999.90;;;;;;;28.91;100.00;94721.78;5053736;28;20178;-58
2022/06/22 06:17:40;;;;;;;1999.90;999.90;;;;;;;28.66;100.00;94714.84;5052700;28;20187;-61
2022/06/22 06:20:31;;;;;;;1999.90;999.90;;;;;;;27.94;100.00;94711.09;5053158;28;20197;-57
2022/06/22 06:23:03;;;;;;;1999.90;999.90;;;;;;;27.49;100.00;94676.53;5036051;28;20190;-56
2022/06/22 06:28:27;;;;;;;1999.90;999.90;;;;;;;26.93;100.00;94681.31;5054381;28;20220;-54
2022/06/22 06:31:03;;;;;;;1999.90;999.90;;;;;;;26.72;100.00;94688.66;5053152;28;20209;-54
2022/06/22 06:33:34;;;;;;;1999.90;999.90;;;;;;;26.61;100.00;94688.78;5052838;28;20181;-51
2022/06/22 06:35:59;;;;;;;1999.90;999.90;;;;;;;26.32;100.00;94686.75;5036738;28;20190;-59
2022/06/22 06:38:28;;;;;;;1999.90;999.90;;;;;;;26.07;100.00;94684.44;5036222;28;20202;-58
2022/06/22 06:41:03;;;;;;;1999.90;999.90;;;;;;;25.75;100.00;94675.75;5036079;28;20250;-57
2022/06/22 06:43:42;;;;;;;1999.90;999.90;;;;;;;25.41;100.00;94674.41;5036322;28;20231;-58
2022/06/22 06:46:40;;;;;;;1999.90;999.90;;;;;;;25.26;100.00;94673.97;5052764;28;20197;-60
2022/06/22 06:49:22;;;;;;;1999.90;999.90;;;;;;;25.05;100.00;94656.00;5053093;28;20217;-60
2022/06/22 06:51:56;;;;;;;1999.90;999.90;;;;;;;24.92;100.00;94667.00;5035863;28;20206;-60
2022/06/22 06:54:45;;;;;;;1999.90;999.90;;;;;;;24.66;100.00;94644.25;5053554;28;20182;-65
2022/06/22 06:57:14;;;;;;;1999.90;999.90;;;;;;;24.51;100.00;94615.84;5025585;28;20200;-66
2022/06/22 06:59:43;;;;;;;1999.90;999.90;;;;;;;24.42;100.00;94588.94;5052576;28;20204;-66
2022/06/22 07:02:22;;;;;;;1999.90;999.90;;;;;;;24.36;100.00;94570.72;5052351;28;20184;-67
2022/06/22 07:04:48;;;;;;;1999.90;999.90;;;;;;;24.28;100.00;94559.31;5053497;28;20224;-67
2022/06/22 07:07:13;;;;;;;1999.90;999.90;;;;;;;24.17;100.00;94548.16;5052653;28;20193;-67
2022/06/22 07:09:40;;;;;;;1999.90;999.90;;;;;;;24.00;100.00;94538.34;5035734;28;20200;-67
2022/06/22 07:12:28;;;;;;;1999.90;999.90;;;;;;;24.07;100.00;94526.66;5052555;28;20212;-61
2022/06/22 07:14:55;;;;;;;1999.90;999.90;;;;;;;24.18;100.00;94532.94;5053233;28;20194;-59
2022/06/22 07:17:21;;;;;;;1999.90;999.90;;;;;;;24.34;100.00;94525.78;5052080;28;20285;-58
2022/06/22 07:19:53;;;;;;;1999.90;999.90;;;;;;;24.48;100.00;94527.50;5052215;28;20232;-58
2022/06/22 07:22:22;;;;;;;1999.90;999.90;;;;;;;24.53;100.00;94540.66;5052636;28;20181;-58
2022/06/22 07:25:01;;;;;;;1999.90;999.90;;;;;;;24.54;100.00;94542.19;5035555;28;20197;-58
2022/06/22 07:27:44;;;;;;;1999.90;999.90;;;;;;;24.66;100.00;94540.91;5052189;28;20189;-58
2022/06/22 07:30:16;;;;;;;1999.90;999.90;;;;;;;24.61;100.00;94536.06;5053776;28;20210;-66
2022/06/22 07:33:03;;;;;;;1999.90;999.90;;;;;;;24.60;100.00;94545.72;5055751;28;20225;-66
2022/06/22 07:35:36;;;;;;;1999.90;999.90;;;;;;;24.48;100.00;94533.09;5055790;28;20185;-56
2022/06/22 07:38:18;;;;;;;1999.90;999.90;;;;;;;24.58;100.00;94526.69;5038735;28;20236;-56
2022/06/22 07:43:31;;;;;;;1999.90;999.90;;;;;;;24.69;100.00;94537.09;5057142;28;20224;-55
2022/06/22 07:45:57;;;;;;;1999.90;999.90;;;;;;;24.73;100.00;94549.47;5055626;28;20217;-50
2022/06/22 07:48:24;;;;;;;1999.90;999.90;;;;;;;24.83;100.00;94552.72;5038954;28;20190;-60
2022/06/22 07:50:58;;;;;;;1999.90;999.90;;;;;;;24.79;100.00;94557.84;5055468;28;20213;-60
2022/06/22 07:53:44;;;;;;;1999.90;999.90;;;;;;;24.86;100.00;94591.59;5055660;28;20207;-66
2022/06/22 07:56:22;;;;;;;1999.90;999.90;;;;;;;25.02;100.00;94592.78;5055873;28;20213;-63
2022/06/22 07:59:00;;;;;;;1999.90;999.90;;;;;;;25.17;100.00;94613.50;5055828;28;20217;-65
2022/06/22 08:01:33;;;;;;;1999.90;999.90;;;;;;;25.38;100.00;94638.34;5056652;28;20186;-67
2022/06/22 08:04:09;;;;;;;1999.90;999.90;;;;;;;25.47;100.00;94657.59;5055523;28;20189;-64
2022/06/22 08:06:44;;;;;;;1999.90;999.90;;;;;;;25.47;100.00;94666.75;5055498;28;20209;-63
2022/06/22 08:09:21;;;;;;;1999.90;999.90;;;;;;;25.51;100.00;94667.25;5055916;28;20284;-61
2022/06/22 08:12:21;;;;;;;1999.90;999.90;;;;;;;25.62;100.00;94689.56;5055249;28;20202;-54
2022/06/22 08:14:52;;;;;;;1999.90;999.90;;;;;;;25.86;100.00;94709.25;5021222;28;20221;-53
2022/06/22 08:17:23;;;;;;;1999.90;999.90;;;;;;;25.80;100.00;94700.13;5055539;28;20182;-54
2022/06/22 08:19:49;;;;;;;1999.90;999.90;;;;;;;25.95;100.00;94678.16;5038234;28;20281;-53
2022/06/22 08:22:14;;;;;;;1999.90;999.90;;;;;;;26.09;100.00;94665.06;5055389;28;20217;-53
2022/06/22 08:24:45;;;;;;;1999.90;999.90;;;;;;;26.23;100.00;94706.69;5055028;28;20198;-56
2022/06/22 08:27:20;;;;;;;1999.90;999.90;;;;;;;26.25;100.00;94711.78;5055084;28;20178;-58
2022/06/22 08:29:48;;;;;;;1999.90;999.90;;;;;;;26.23;100.00;94731.91;5038046;28;20213;-58
2022/06/22 08:32:35;;;;;;;1999.90;999.90;;;;;;;26.16;100.00;94746.47;5054867;28;20186;-57
2022/06/22 08:35:21;;;;;;;1999.90;999.90;;;;;;;26.03;100.00;94737.88;5054465;28;20244;-58
2022/06/22 08:38:08;;;;;;;1999.90;999.90;;;;;;;26.06;100.00;94767.66;5054850;28;20515;-58
2022/06/22 08:40:43;;;;;;;1999.90;999.90;;;;;;;26.10;100.00;94765.34;5054823;28;20189;-57
2022/06/22 08:43:27;;;;;;;1999.90;999.90;;;;;;;25.87;100.00;94765.97;5037595;28;20199;-58
2022/06/22 08:45:55;;;;;;;1999.90;999.90;;;;;;;25.71;100.00;94758.44;5037861;28;20201;-57
2022/06/22 08:48:55;;;;;;;1999.90;999.90;;;;;;;25.68;100.00;94777.03;5038338;28;20205;-58
2022/06/22 08:51:49;;;;;;;1999.90;999.90;;;;;;;25.42;100.00;94759.84;5055158;28;20213;-58
2022/06/22 08:54:33;;;;;;;1999.90;999.90;;;;;;;25.30;100.00;94744.38;5054778;28;20239;-58
2022/06/22 08:57:17;;;;;;;1999.90;999.90;;;;;;;25.34;100.00;94730.88;5037675;28;20181;-58
2022/06/22 08:59:51;;;;;;;1999.90;999.90;;;;;;;25.29;100.00;94689.75;5054765;28;20190;-58
2022/06/22 09:02:26;;;;;;;1999.90;999.90;;;;;;;25.30;100.00;94680.84;5038144;28;20245;-58
2022/06/22 09:05:00;;;;;;;1999.90;999.90;;;;;;;25.35;100.00;94654.13;5037879;28;20225;-60
2022/06/22 09:07:43;;;;;;;1999.90;999.90;;;;;;;25.46;100.00;94676.44;5037782;28;20192;-68
2022/06/22 09:10:27;;;;;;;1999.90;999.90;;;;;;;25.68;100.00;94697.91;5054342;28;20213;-69
2022/06/22 09:13:15;;;;;;;1999.90;999.90;;;;;;;26.07;100.00;94746.75;5037154;28;20193;-69
2022/06/22 09:15:59;;;;;;;1999.90;999.90;;;;;;;26.39;100.00;94756.19;5037463;28;20214;-67
2022/06/22 09:18:33;;;;;;;1999.90;999.90;;;;;;;26.78;100.00;94770.66;5038085;28;20277;-68
2022/06/22 09:21:24;;;;;;;1999.90;999.90;;;;;;;27.07;100.00;94786.69;5037719;28;20204;-57
2022/06/22 09:24:06;;;;;;;1999.90;999.90;;;;;;;27.10;100.00;94810.09;5037719;28;20285;-57
2022/06/22 09:26:53;;;;;;;1999.90;999.90;;;;;;;26.99;100.00;94802.53;5053600;28;20198;-58
2022/06/22 09:29:25;;;;;;;1999.90;999.90;;;;;;;27.00;100.00;94784.47;5054539;28;20190;-59
2022/06/22 09:32:05;;;;;;;1999.90;999.90;;;;;;;27.09;100.00;94781.28;5037006;28;20206;-59
2022/06/22 09:34:46;;;;;;;1999.90;999.90;;;;;;;27.22;100.00;94784.25;5037402;28;20182;-59
2022/06/22 09:37:23;;;;;;;1999.90;999.90;;;;;;;27.23;100.00;94777.34;5036979;28;20200;-59
2022/06/22 09:39:58;;;;;;;1999.90;999.90;;;;;;;27.39;100.00;94775.66;5036716;28;20284;-57
2022/06/22 09:42:39;;;;;;;1999.90;999.90;;;;;;;27.41;100.00;94779.44;5037222;28;20185;-66
2022/06/22 09:45:27;;;;;;;1999.90;999.90;;;;;;;27.31;100.00;94767.03;5037557;28;20185;-67
2022/06/22 09:48:38;;;;;;;1999.90;999.90;;;;;;;27.39;100.00;94770.78;5053394;28;20182;-68
2022/06/22 09:51:41;;;;;;;1999.90;999.90;;;;;;;27.42;100.00;94777.41;5041360;28;20219;-67
2022/06/22 09:57:37;;;;;;;1999.90;999.90;;;;;;;27.17;100.00;94767.47;5054835;28;20197;-59
2022/06/22 10:00:02;;;;;;;1999.90;999.90;;;;;;;27.17;100.00;94765.38;5037135;28;20185;-69
2022/06/22 10:02:54;;;;;;;1999.90;999.90;;;;;;;27.05;100.00;94766.81;5036556;28;20217;-56
2022/06/22 10:05:38;;;;;;;1999.90;999.90;;;;;;;27.31;100.00;94764.25;5053022;28;20193;-57
2022/06/22 10:08:38;;;;;;;1999.90;999.90;;;;;;;27.39;100.00;94759.56;5054196;28;20224;-56
2022/06/22 10:11:20;;;;;;;1999.90;999.90;;;;;;;27.65;100.00;94768.16;5037512;28;20212;-57
2022/06/22 10:14:25;;;;;;;1999.90;999.90;;;;;;;28.23;100.00;94777.56;5053739;28;20225;-55
2022/06/22 10:16:53;;;;;;;1999.90;999.90;;;;;;;28.71;100.00;94781.44;5036601;28;20202;-56
2022/06/22 10:19:56;;;;;;;1999.90;999.90;;;;;;;29.09;100.00;94788.50;5036883;28;20190;-60
2022/06/22 10:22:45;;;;;;;1999.90;999.90;;;;;;;29.08;100.00;94798.19;5036531;28;20212;-60
2022/06/22 10:25:43;;;;;;;1999.90;999.90;;;;;;;28.59;100.00;94785.75;5036581;28;20281;-60
2022/06/22 10:28:42;;;;;;;1999.90;999.90;;;;;;;28.58;100.00;94784.97;5032432;28;20190;-61
2022/06/22 10:31:14;;;;;;;1999.90;999.90;;;;;;;28.96;100.00;94796.88;5052898;28;20209;-61
2022/06/22 10:34:00;;;;;;;1999.90;999.90;;;;;;;28.87;100.00;94811.34;5036270;28;20177;-55
2022/06/22 10:36:26;;;;;;;1999.90;999.90;;;;;;;28.88;100.00;94818.50;5036537;28;20247;-60
2022/06/22 10:38:57;;;;;;;1999.90;999.90;;;;;;;28.67;100.00;94803.50;5036109;28;20210;-59
2022/06/22 10:45:09;;;;;;;1999.90;999.90;;;;;;;28.71;100.00;94803.94;5052743;28;20200;-59
2022/06/22 10:48:17;;;;;;;1999.90;999.90;;;;;;;28.29;100.00;94789.50;5036600;28;20186;-59
2022/06/22 10:51:19;;;;;;;1999.90;999.90;;;;;;;28.33;100.00;94775.13;5035597;28;20284;-59
2022/06/22 10:54:16;;;;;;;1999.90;999.90;;;;;;;28.40;100.00;94765.34;5036067;28;20189;-67
2022/06/22 10:57:16;;;;;;;1999.90;999.90;;;;;;;28.50;100.00;94777.69;5052499;28;20387;-57
2022/06/22 11:00:10;;;;;;;1999.90;999.90;;;;;;;28.21;100.00;94757.69;5019119;28;20224;-57
2022/06/22 11:02:59;;;;;;;1999.90;999.90;;;;;;;27.94;100.00;94750.41;5036169;28;20190;-56
2022/06/22 11:05:41;;;;;;;1999.90;999.90;;;;;;;27.75;100.00;94744.03;5003448;28;20284;-55
2022/06/22 11:08:18;;;;;;;1999.90;999.90;;;;;;;27.50;100.00;94736.22;5042877;28;20194;-55
2022/06/22 11:11:11;;;;;;;1999.90;999.90;;;;;;;26.91;100.00;94717.50;5042293;28;20295;-60
2022/06/22 11:13:49;;;;;;;1999.90;999.90;;;;;;;26.56;100.00;94703.59;5042347;28;20186;-59
2022/06/22 11:16:36;;;;;;;1999.90;999.90;;;;;;;26.33;100.00;94698.72;5042245;28;20225;-60
2022/06/22 11:19:26;;;;;;;1999.90;999.90;;;;;;;26.22;100.00;94685.56;5043019;28;20185;-59
2022/06/22 11:22:12;;;;;;;1999.90;999.90;;;;;;;26.09;100.00;94682.63;5042283;28;20182;-59
2022/06/22 11:24:50;;;;;;;1999.90;999.90;;;;;;;26.07;100.00;94685.16;5042830;28;20196;-59
2022/06/22 11:30:51;;;;;;;1999.90;999.90;;;;;;;26.05;100.00;94690.56;5043994;28;20308;-61
2022/06/22 11:33:38;;;;;;;1999.90;999.90;;;;;;;26.04;100.00;94686.22;5043126;28;20186;-56
2022/06/22 11:36:22;;;;;;;1999.90;999.90;;;;;;;26.09;100.00;94671.41;5042033;28;20185;-56
2022/06/22 11:39:12;;;;;;;1999.90;999.90;;;;;;;26.24;100.00;94699.81;5058641;28;20320;-56
2022/06/22 11:42:08;;;;;;;1999.90;999.90;;;;;;;26.16;100.00;94712.84;5042154;28;20197;-59
2022/06/22 11:48:23;;;;;;;1999.90;999.90;;;;;;;26.28;100.00;94728.28;5059895;28;20184;-67
2022/06/22 11:51:03;;;;;;;1999.90;999.90;;;;;;;26.33;100.00;94730.25;5058966;28;20248;-58
2022/06/22 11:53:50;;;;;;;1999.90;999.90;;;;;;;26.51;100.00;94732.41;5058602;28;20276;-62
2022/06/22 11:56:42;;;;;;;1999.90;999.90;;;;;;;26.69;100.00;94737.34;5042207;28;20185;-58
2022/06/22 11:59:34;;;;;;;1999.90;999.90;;;;;;;26.84;100.00;94750.97;5041951;28;20193;-58